Time;durP1;ratioP1;P1;durP2;ratioP2;P2;SDS_P1;SDS_P2;PMS_P1;PMS_P2;Temp;Humidity;BMP_temperature;BMP_pressure;BME280_temperature;BME280_humidity;BME280_pressure;Samples;Min_cycle;Max_cycle;Signal;HPM_P1;HPM_P2
2022/12/12 00:02:16;;;;;;;1.77;0.85;;;1.50;91.90;;;;;;6154071;23;20041;-75
2022/12/12 00:04:42;;;;;;;1.48;0.80;;;1.50;91.90;;;;;;6176992;23;21118;-75
2022/12/12 00:07:07;;;;;;;2.10;1.20;;;1.50;91.90;;;;;;6151909;23;20006;-75
2022/12/12 00:09:33;;;;;;;1.95;0.90;;;1.60;91.90;;;;;;6153488;23;20008;-75
2022/12/12 00:11:59;;;;;;;1.75;0.90;;;1.50;91.90;;;;;;6153809;23;20012;-75
2022/12/12 00:14:24;;;;;;;2.10;0.80;;;1.50;91.90;;;;;;6152332;23;20850;-75
2022/12/12 00:16:50;;;;;;;2.38;1.20;;;1.50;91.90;;;;;;6152551;23;20084;-75
2022/12/12 00:19:15;;;;;;;1.77;0.93;;;1.50;91.90;;;;;;6153687;23;20008;-75
2022/12/12 00:21:41;;;;;;;2.40;1.13;;;1.50;91.80;;;;;;6152022;23;20335;-76
2022/12/12 00:24:07;;;;;;;2.42;1.10;;;1.50;91.80;;;;;;6153966;23;20453;-75
2022/12/12 00:26:34;;;;;;;0.95;0.73;;;1.60;91.90;;;;;;6153618;23;20009;-75
2022/12/12 00:29:01;;;;;;;1.13;0.70;;;1.50;91.80;;;;;;6153959;23;20010;-75
2022/12/12 00:31:28;;;;;;;2.00;0.80;;;1.50;91.80;;;;;;6153518;23;20016;-75
2022/12/12 00:33:53;;;;;;;0.93;0.65;;;1.50;91.80;;;;;;6147286;23;20089;-75
2022/12/12 00:36:22;;;;;;;1.10;0.90;;;1.60;91.80;;;;;;6153975;23;20364;-75
2022/12/12 00:38:48;;;;;;;2.20;1.00;;;1.50;91.80;;;;;;6154085;23;20077;-75
2022/12/12 00:41:14;;;;;;;1.50;0.93;;;1.50;91.80;;;;;;6151910;23;20029;-75
2022/12/12 00:43:40;;;;;;;1.20;0.80;;;1.50;91.80;;;;;;6153379;23;20009;-75
2022/12/12 00:46:06;;;;;;;1.30;0.70;;;1.50;91.80;;;;;;6153455;23;20005;-75
2022/12/12 00:48:32;;;;;;;1.65;0.88;;;1.50;91.80;;;;;;6153311;23;20469;-75
2022/12/12 00:51:07;;;;;;;1.77;1.00;;;1.50;91.80;;;;;;6153836;23;19998;-75
2022/12/12 00:53:33;;;;;;;1.35;0.80;;;1.50;91.80;;;;;;6153622;23;20378;-75
2022/12/12 00:55:59;;;;;;;1.98;1.08;;;1.50;91.80;;;;;;6152562;23;20052;-75
2022/12/12 00:58:25;;;;;;;1.52;0.90;;;1.50;91.80;;;;;;6153499;23;20389;-75
2022/12/12 01:00:51;;;;;;;1.80;0.77;;;1.50;91.80;;;;;;6153119;23;20005;-75
2022/12/12 01:03:18;;;;;;;1.88;0.95;;;1.50;91.80;;;;;;6152871;23;19998;-75
2022/12/12 01:05:44;;;;;;;1.00;0.80;;;1.50;91.80;;;;;;6151469;23;20025;-75
2022/12/12 01:08:09;;;;;;;1.45;0.88;;;1.50;91.80;;;;;;6151336;23;20005;-75
2022/12/12 01:10:36;;;;;;;1.73;0.88;;;1.50;91.70;;;;;;6153512;23;20002;-75
2022/12/12 01:13:01;;;;;;;1.15;0.82;;;1.50;91.70;;;;;;6152921;23;20009;-75
2022/12/12 01:15:27;;;;;;;1.23;0.90;;;1.50;91.70;;;;;;6151454;23;19998;-75
2022/12/12 01:17:53;;;;;;;1.35;0.77;;;1.50;91.70;;;;;;6151464;23;20018;-75
2022/12/12 01:20:22;;;;;;;3.13;1.30;;;1.50;91.70;;;;;;6152829;23;20088;-75
2022/12/12 01:22:48;;;;;;;1.83;0.90;;;1.50;91.70;;;;;;6152706;23;20002;-75
2022/12/12 01:25:15;;;;;;;1.85;1.10;;;1.50;91.70;;;;;;6152881;23;20081;-75
2022/12/12 01:27:41;;;;;;;2.13;0.90;;;1.50;91.70;;;;;;6151189;23;20010;-75
2022/12/12 01:30:11;;;;;;;1.80;0.95;;;1.50;91.70;;;;;;6151207;23;20334;-75
2022/12/12 01:32:36;;;;;;;1.85;0.75;;;1.50;91.70;;;;;;6152756;23;20415;-75
2022/12/12 01:35:06;;;;;;;1.25;0.57;;;1.50;91.70;;;;;;6151008;23;20813;-75
2022/12/12 01:37:34;;;;;;;1.75;0.88;;;1.50;91.70;;;;;;6152820;23;20013;-75
2022/12/12 01:40:00;;;;;;;1.77;0.93;;;1.50;92.00;;;;;;6153173;23;20084;-75
2022/12/12 01:42:27;;;;;;;1.95;0.90;;;1.50;91.70;;;;;;6152510;23;20517;-75
2022/12/12 01:44:53;;;;;;;1.13;0.85;;;1.50;91.70;;;;;;6152507;23;20013;-75
2022/12/12 01:47:21;;;;;;;1.80;0.93;;;1.40;91.60;;;;;;6152601;23;20372;-75
2022/12/12 01:49:59;;;;;;;1.88;0.85;;;1.50;91.70;;;;;;6152758;23;20384;-75
2022/12/12 01:52:33;;;;;;;1.92;1.10;;;1.40;91.70;;;;;;6152732;23;20001;-75
2022/12/12 01:55:01;;;;;;;1.27;1.10;;;1.40;91.70;;;;;;6151239;23;20326;-74
2022/12/12 01:57:31;;;;;;;1.40;0.70;;;1.40;91.70;;;;;;6153142;23;20021;-74
2022/12/12 02:00:01;;;;;;;1.50;0.90;;;1.40;91.70;;;;;;6151436;23;20020;-75
2022/12/12 02:02:28;;;;;;;1.60;0.88;;;1.40;91.70;;;;;;6150540;23;20023;-74
2022/12/12 02:04:54;;;;;;;1.75;0.90;;;1.40;91.70;;;;;;6152339;23;20014;-74
2022/12/12 02:07:19;;;;;;;2.00;0.95;;;1.30;91.70;;;;;;6150734;23;20064;-74
2022/12/12 02:09:48;;;;;;;1.10;0.68;;;1.20;91.70;;;;;;6150865;23;20005;-74
2022/12/12 02:12:14;;;;;;;1.65;0.88;;;1.30;91.80;;;;;;6152691;23;20006;-74
2022/12/12 02:14:44;;;;;;;1.60;0.90;;;1.20;91.80;;;;;;6152461;23;20377;-74
2022/12/12 02:17:38;;;;;;;1.60;0.90;;;1.20;91.80;;;;;;6152057;23;20426;-74
2022/12/12 02:20:29;;;;;;;1.55;0.80;;;1.20;91.80;;;;;;6153583;23;20009;-74
2022/12/12 02:23:29;;;;;;;1.10;0.80;;;1.20;91.80;;;;;;6153907;23;20006;-75
2022/12/12 02:26:29;;;;;;;1.90;0.80;;;1.20;91.80;;;;;;6152980;23;20276;-74
2022/12/12 02:29:34;;;;;;;1.20;0.75;;;1.20;91.80;;;;;;6152349;23;20005;-74
2022/12/12 02:32:30;;;;;;;1.30;0.77;;;1.20;91.80;;;;;;6152228;23;20084;-74
2022/12/12 02:35:20;;;;;;;2.33;0.90;;;1.10;91.80;;;;;;6153269;23;20002;-74
2022/12/12 02:38:10;;;;;;;1.02;0.55;;;1.20;91.80;;;;;;6153221;23;20013;-73
2022/12/12 02:41:10;;;;;;;1.83;0.70;;;1.10;91.70;;;;;;6153787;23;20331;-74
2022/12/12 02:43:58;;;;;;;1.02;0.65;;;1.30;91.80;;;;;;6153744;23;20016;-74
2022/12/12 02:46:31;;;;;;;0.90;0.70;;;1.10;91.80;;;;;;6153747;23;20009;-73
2022/12/12 02:49:04;;;;;;;1.95;0.90;;;1.10;91.80;;;;;;6151919;23;20084;-74
2022/12/12 02:51:31;;;;;;;1.55;0.90;;;1.10;91.80;;;;;;6152425;23;20500;-73
2022/12/12 02:53:59;;;;;;;1.38;0.80;;;1.10;91.80;;;;;;6153874;23;20329;-74
2022/12/12 02:56:44;;;;;;;1.48;0.60;;;1.20;91.80;;;;;;6152188;23;20009;-74
2022/12/12 02:59:15;;;;;;;1.98;1.10;;;1.10;91.70;;;;;;6151804;23;20002;-73
2022/12/12 03:02:03;;;;;;;1.95;1.00;;;1.10;91.70;;;;;;6176541;23;20477;-73
2022/12/12 03:08:24;;;;;;;1.50;0.70;;;1.10;91.70;;;;;;6153564;23;20485;-74
2022/12/12 03:11:01;;;;;;;2.33;0.90;;;1.00;91.70;;;;;;6154145;23;20308;-74
2022/12/12 03:13:39;;;;;;;1.05;0.70;;;0.90;91.80;;;;;;6151933;23;20008;-73
2022/12/12 03:16:30;;;;;;;2.08;1.00;;;0.90;91.80;;;;;;6153442;23;20044;-73
2022/12/12 03:19:14;;;;;;;1.02;0.57;;;0.90;91.80;;;;;;6154149;23;20002;-74
2022/12/12 03:22:01;;;;;;;1.27;0.63;;;0.90;91.90;;;;;;6151940;23;20009;-73
2022/12/12 03:24:42;;;;;;;1.10;0.65;;;0.90;91.90;;;;;;6153277;23;20002;-73
2022/12/12 03:27:16;;;;;;;1.77;0.90;;;0.70;91.90;;;;;;6153484;23;20009;-74
2022/12/12 03:29:54;;;;;;;1.75;0.80;;;0.70;91.90;;;;;;6151766;23;20009;-74
2022/12/12 03:32:26;;;;;;;1.35;0.73;;;0.60;91.90;;;;;;6176508;23;20029;-74
2022/12/12 03:34:58;;;;;;;1.83;0.90;;;0.60;92.00;;;;;;6153983;23;20319;-74
2022/12/12 03:37:36;;;;;;;0.88;0.65;;;0.60;92.00;;;;;;6151937;23;20037;-73
2022/12/12 03:40:10;;;;;;;1.38;0.80;;;0.50;92.00;;;;;;6176581;23;20446;-73
2022/12/12 03:42:59;;;;;;;1.73;0.85;;;0.50;92.00;;;;;;6153404;23;20331;-73
2022/12/12 03:45:33;;;;;;;1.15;0.57;;;0.40;92.10;;;;;;6153396;23;20102;-74
2022/12/12 03:48:17;;;;;;;2.65;1.02;;;0.40;92.10;;;;;;6153077;23;20009;-73
2022/12/12 03:50:49;;;;;;;2.03;0.80;;;0.30;92.10;;;;;;6154090;23;20022;-73
2022/12/12 03:53:31;;;;;;;1.67;0.90;;;0.20;92.10;;;;;;6153308;23;20006;-73
2022/12/12 03:56:11;;;;;;;1.45;0.80;;;0.20;92.20;;;;;;6153974;23;20002;-74
2022/12/12 03:58:45;;;;;;;1.45;0.77;;;0.10;92.10;;;;;;6151723;23;20005;-73
2022/12/12 04:01:12;;;;;;;1.55;0.80;;;0.10;92.20;;;;;;6154053;23;20009;-73
2022/12/12 04:03:53;;;;;;;1.35;0.88;;;0.10;92.20;;;;;;6152014;23;20489;-73
2022/12/12 04:06:30;;;;;;;2.00;0.82;;;0.10;92.30;;;;;;6152338;23;20414;-73
2022/12/12 04:15:31;;;;;;;1.58;0.65;;;0.00;92.20;;;;;;6152425;23;20035;-73
2022/12/12 04:18:15;;;;;;;1.10;0.70;;;-0.10;92.20;;;;;;6127085;23;20001;-73
2022/12/12 04:23:54;;;;;;;1.42;0.85;;;-0.10;92.20;;;;;;6153128;23;20009;-73
2022/12/12 04:26:39;;;;;;;0.80;0.50;;;-0.20;92.20;;;;;;6176663;23;20021;-73
2022/12/12 04:29:20;;;;;;;0.93;0.70;;;-0.20;92.20;;;;;;6151938;23;20032;-74
2022/12/12 04:31:58;;;;;;;0.98;0.60;;;-0.20;92.20;;;;;;6151632;23;20072;-73
2022/12/12 04:34:35;;;;;;;1.45;0.70;;;-0.20;92.20;;;;;;6153677;23;20010;-73
2022/12/12 04:37:03;;;;;;;1.55;0.70;;;-0.30;92.10;;;;;;6128590;23;19997;-73
2022/12/12 04:39:30;;;;;;;1.25;0.70;;;-0.30;92.10;;;;;;6153428;23;20005;-73
2022/12/12 04:41:58;;;;;;;1.52;0.60;;;-0.30;92.10;;;;;;6151948;23;20013;-73
2022/12/12 04:44:28;;;;;;;1.63;0.80;;;-0.30;92.50;;;;;;6152922;23;20001;-74
2022/12/12 04:46:56;;;;;;;0.93;0.70;;;-0.40;92.20;;;;;;6176069;23;20016;-73
2022/12/12 04:49:26;;;;;;;0.95;0.57;;;-0.40;92.20;;;;;;6151522;23;20017;-73
2022/12/12 04:51:58;;;;;;;1.70;0.80;;;-0.50;92.20;;;;;;6153721;23;20010;-73
2022/12/12 04:54:52;;;;;;;0.95;0.50;;;-0.50;92.30;;;;;;6151447;23;20045;-73
2022/12/12 04:57:26;;;;;;;1.52;0.82;;;-0.60;92.30;;;;;;6154736;23;20076;-74
2022/12/12 04:59:52;;;;;;;1.45;0.70;;;-0.60;92.30;;;;;;6151561;23;20006;-74
2022/12/12 05:02:39;;;;;;;1.00;0.57;;;-0.60;92.30;;;;;;6151866;23;20012;-73
2022/12/12 05:05:11;;;;;;;1.58;0.82;;;-0.80;92.50;;;;;;6153917;23;20416;-74
2022/12/12 05:07:40;;;;;;;0.75;0.50;;;-0.70;92.30;;;;;;6153321;23;20009;-73
2022/12/12 05:10:10;;;;;;;1.85;0.85;;;-0.80;92.30;;;;;;6176595;23;20391;-73
2022/12/12 05:12:47;;;;;;;1.98;0.90;;;-0.80;92.30;;;;;;6152038;23;20004;-74
2022/12/12 05:15:14;;;;;;;1.85;0.70;;;-0.80;92.40;;;;;;6151633;23;20071;-74
2022/12/12 05:17:48;;;;;;;1.08;0.52;;;-0.80;92.30;;;;;;6151758;23;20009;-74
2022/12/12 05:20:14;;;;;;;1.48;0.70;;;-0.90;92.30;;;;;;6151597;23;20084;-74
2022/12/12 05:22:40;;;;;;;1.92;0.82;;;-0.90;92.30;;;;;;6176380;23;20020;-74
2022/12/12 05:25:07;;;;;;;1.90;1.08;;;-0.90;92.30;;;;;;6153118;23;20001;-74
2022/12/12 05:27:33;;;;;;;2.03;0.95;;;-1.10;92.20;;;;;;6153089;23;20093;-74
2022/12/12 05:29:58;;;;;;;1.45;0.80;;;-1.00;92.30;;;;;;6153246;23;20009;-74
2022/12/12 05:32:27;;;;;;;1.60;0.77;;;-1.00;92.30;;;;;;6153447;23;20029;-74
2022/12/12 05:34:53;;;;;;;2.30;0.88;;;-1.00;92.30;;;;;;6151601;23;20080;-74
2022/12/12 05:37:18;;;;;;;1.50;0.70;;;-1.10;92.30;;;;;;6153367;23;20033;-74
2022/12/12 05:39:44;;;;;;;1.05;0.70;;;-1.10;92.30;;;;;;6126873;23;20096;-74
2022/12/12 05:42:10;;;;;;;1.95;0.98;;;-1.20;92.30;;;;;;6151892;23;20423;-74
2022/12/12 05:44:35;;;;;;;1.67;0.70;;;-1.10;92.40;;;;;;6153426;23;20002;-73
2022/12/12 05:47:01;;;;;;;1.98;0.75;;;-1.10;92.40;;;;;;6151508;23;20001;-74
2022/12/12 05:49:27;;;;;;;1.77;0.93;;;-1.20;92.30;;;;;;6152635;23;20023;-74
2022/12/12 05:51:52;;;;;;;1.52;0.63;;;-1.20;92.30;;;;;;6152652;23;20084;-74
2022/12/12 05:54:18;;;;;;;1.17;0.63;;;-1.30;92.30;;;;;;6153129;23;20004;-74
2022/12/12 05:56:43;;;;;;;1.33;0.70;;;-1.20;92.30;;;;;;6154474;23;20311;-74
2022/12/12 05:59:09;;;;;;;1.45;0.60;;;-1.20;92.30;;;;;;6152722;23;20311;-75
2022/12/12 06:01:35;;;;;;;2.33;0.77;;;-1.20;92.30;;;;;;6152739;23;20367;-74
2022/12/12 06:04:01;;;;;;;2.25;0.93;;;-1.30;92.30;;;;;;6152628;23;20005;-74
2022/12/12 06:06:26;;;;;;;2.15;1.13;;;-1.30;92.30;;;;;;6154390;23;20009;-74
2022/12/12 06:08:52;;;;;;;2.55;0.80;;;-1.30;92.30;;;;;;6153270;23;20002;-75
2022/12/12 06:11:18;;;;;;;0.85;0.57;;;-1.30;92.30;;;;;;6154698;23;20080;-75
2022/12/12 06:13:43;;;;;;;1.67;0.70;;;-1.40;92.30;;;;;;6154640;23;20002;-75
2022/12/12 06:16:13;;;;;;;2.35;0.80;;;-1.30;92.30;;;;;;6154290;23;20069;-75
2022/12/12 06:18:39;;;;;;;1.92;0.77;;;-1.50;92.30;;;;;;6153315;23;19994;-75
2022/12/12 06:21:08;;;;;;;1.75;1.08;;;-1.40;92.30;;;;;;6154830;23;20001;-75
2022/12/12 06:23:38;;;;;;;1.02;0.70;;;-1.50;92.30;;;;;;6153466;23;20009;-74
2022/12/12 06:26:05;;;;;;;1.63;0.85;;;-1.50;92.30;;;;;;6177182;23;20009;-74
2022/12/12 06:28:30;;;;;;;0.65;0.65;;;-1.50;92.30;;;;;;6154848;23;20001;-74
2022/12/12 06:30:56;;;;;;;2.00;0.93;;;-1.50;92.30;;;;;;6152666;23;20004;-74
2022/12/12 06:33:22;;;;;;;1.63;0.90;;;-1.60;92.30;;;;;;6153986;23;20009;-74
2022/12/12 06:35:59;;;;;;;1.90;0.90;;;-1.60;92.30;;;;;;6153219;23;20091;-74
2022/12/12 06:38:24;;;;;;;2.45;0.93;;;-1.60;92.30;;;;;;6177412;23;20025;-74
2022/12/12 06:40:50;;;;;;;1.88;1.10;;;-1.60;92.30;;;;;;6153005;23;20017;-74
2022/12/12 06:43:15;;;;;;;1.08;0.80;;;-1.70;92.30;;;;;;6150975;23;20048;-74
2022/12/12 06:45:41;;;;;;;1.73;0.93;;;-1.70;92.30;;;;;;6154498;23;20005;-74
2022/12/12 06:48:07;;;;;;;2.10;0.70;;;-1.70;92.40;;;;;;6152519;23;20052;-74
2022/12/12 06:50:32;;;;;;;2.33;0.95;;;-1.70;92.30;;;;;;6152972;23;20004;-73
2022/12/12 06:52:58;;;;;;;1.35;0.90;;;-1.70;92.30;;;;;;6152583;23;20009;-74
2022/12/12 06:55:24;;;;;;;2.60;1.00;;;-1.70;92.30;;;;;;6152469;23;20422;-74
2022/12/12 06:57:49;;;;;;;1.15;0.90;;;-1.80;92.30;;;;;;6154497;23;20002;-74
2022/12/12 07:00:15;;;;;;;2.88;0.95;;;-1.80;92.30;;;;;;6145704;23;20006;-74
2022/12/12 07:02:41;;;;;;;1.80;0.95;;;-1.90;92.30;;;;;;6152557;23;20017;-74
2022/12/12 07:05:07;;;;;;;2.35;0.73;;;-1.80;92.40;;;;;;6152580;23;20509;-74
2022/12/12 07:07:33;;;;;;;1.30;0.63;;;-1.90;92.40;;;;;;6152423;23;20389;-74
2022/12/12 07:09:59;;;;;;;2.00;1.00;;;-1.90;92.40;;;;;;6153911;23;20009;-74
2022/12/12 07:12:24;;;;;;;1.85;0.70;;;-1.90;92.40;;;;;;6152490;23;20009;-74
2022/12/12 07:14:50;;;;;;;1.50;0.60;;;-1.90;92.40;;;;;;6154029;23;20010;-74
2022/12/12 07:17:16;;;;;;;1.23;0.55;;;-2.00;92.40;;;;;;6152898;23;20006;-73
2022/12/12 07:19:41;;;;;;;1.75;0.80;;;-2.00;92.30;;;;;;6153718;23;20108;-75
2022/12/12 07:22:07;;;;;;;1.48;0.70;;;-2.00;92.40;;;;;;6153696;23;20485;-75
2022/12/12 07:24:33;;;;;;;1.65;0.95;;;-2.00;92.30;;;;;;6153747;23;20304;-75
2022/12/12 07:26:58;;;;;;;1.25;0.70;;;-2.00;92.30;;;;;;6153107;23;20021;-75
2022/12/12 07:29:24;;;;;;;1.80;0.80;;;-2.10;92.30;;;;;;6153404;23;20001;-75
2022/12/12 07:33:00;;;;;;;2.38;0.82;;;-2.00;92.30;;;;;;6153612;23;20406;-76
2022/12/12 07:39:32;;;;;;;1.20;0.60;;;-2.00;92.30;;;;;;6152104;23;20126;-74
2022/12/12 07:41:58;;;;;;;2.10;0.82;;;-2.10;92.30;;;;;;6154196;23;20237;-74
2022/12/12 07:44:24;;;;;;;1.52;0.70;;;-2.10;92.30;;;;;;6152345;23;20009;-74
2022/12/12 07:46:50;;;;;;;1.10;0.80;;;-2.10;92.30;;;;;;6155631;23;20017;-73
2022/12/12 07:49:19;;;;;;;1.98;1.00;;;-2.00;92.30;;;;;;6156746;23;20071;-74
2022/12/12 07:51:45;;;;;;;1.45;0.88;;;-2.10;92.30;;;;;;6180883;23;20021;-74
2022/12/12 07:54:10;;;;;;;1.38;0.60;;;-2.10;92.30;;;;;;6156632;23;20322;-74
2022/12/12 07:56:36;;;;;;;1.50;0.70;;;-2.10;92.60;;;;;;6180742;23;20028;-74
2022/12/12 07:59:01;;;;;;;1.27;0.70;;;-2.10;92.30;;;;;;6156127;23;20013;-74
2022/12/12 08:01:28;;;;;;;1.98;1.00;;;-2.10;92.30;;;;;;6155933;23;20013;-74
2022/12/12 08:03:55;;;;;;;2.38;0.70;;;-2.10;92.60;;;;;;6126582;23;20481;-74
2022/12/12 08:06:22;;;;;;;1.58;0.70;;;-2.10;92.30;;;;;;6126811;23;20543;-74
2022/12/12 08:08:48;;;;;;;1.35;0.75;;;-2.10;92.30;;;;;;6126402;23;20010;-74
2022/12/12 08:11:17;;;;;;;1.88;0.80;;;-1.90;92.40;;;;;;6151575;23;20080;-74
2022/12/12 08:13:42;;;;;;;1.83;0.77;;;-2.10;92.30;;;;;;6123638;23;20017;-73
2022/12/12 08:16:14;;;;;;;2.03;0.90;;;-1.90;92.30;;;;;;6126646;23;20516;-73
2022/12/12 08:18:40;;;;;;;1.65;0.73;;;-1.90;92.20;;;;;;6151796;23;20013;-74
2022/12/12 08:21:09;;;;;;;1.65;0.85;;;-1.90;92.20;;;;;;6126530;23;20071;-73
2022/12/12 08:23:35;;;;;;;1.77;0.90;;;-1.90;92.10;;;;;;6126587;23;20094;-74
2022/12/12 08:26:04;;;;;;;1.77;0.77;;;-1.80;92.10;;;;;;6151004;23;20009;-74
2022/12/12 08:28:29;;;;;;;1.83;0.93;;;-1.80;92.10;;;;;;6151355;23;20334;-74
2022/12/12 08:30:55;;;;;;;1.73;0.90;;;-1.80;92.10;;;;;;6150644;23;20002;-73
2022/12/12 08:33:21;;;;;;;1.85;0.90;;;-1.80;92.00;;;;;;6151665;23;20077;-74
2022/12/12 08:35:46;;;;;;;1.63;0.90;;;-1.70;92.10;;;;;;6145591;23;20428;-74
2022/12/12 08:38:12;;;;;;;2.20;1.10;;;-1.70;92.10;;;;;;6151337;23;20016;-73
2022/12/12 08:40:41;;;;;;;1.17;0.70;;;-1.70;92.10;;;;;;6153530;23;20006;-73
2022/12/12 08:43:08;;;;;;;2.03;1.08;;;-1.70;92.10;;;;;;6128345;23;20067;-73
2022/12/12 08:45:34;;;;;;;1.92;1.00;;;-1.50;92.30;;;;;;6177236;23;20005;-74
2022/12/12 08:48:00;;;;;;;2.45;1.00;;;-1.60;92.00;;;;;;6152353;23;20484;-73
2022/12/12 08:50:25;;;;;;;2.90;1.10;;;-1.60;92.00;;;;;;6152561;23;20010;-74
2022/12/12 08:52:51;;;;;;;1.65;0.73;;;-1.60;91.90;;;;;;6128108;23;19997;-75
2022/12/12 08:55:17;;;;;;;2.10;0.95;;;-1.50;91.90;;;;;;6152233;23;20001;-75
2022/12/12 08:57:43;;;;;;;2.03;0.90;;;-1.50;91.90;;;;;;6153414;23;20434;-74
2022/12/12 09:00:09;;;;;;;1.75;0.80;;;-1.60;91.90;;;;;;6153668;23;20029;-75
2022/12/12 09:02:36;;;;;;;2.97;1.10;;;-1.50;91.90;;;;;;6152239;23;20101;-74
2022/12/12 09:05:02;;;;;;;3.45;1.15;;;-1.50;91.90;;;;;;6153511;23;20372;-74
2022/12/12 09:07:27;;;;;;;2.15;1.02;;;-1.50;91.90;;;;;;6151754;23;20022;-73
2022/12/12 09:09:53;;;;;;;2.60;1.10;;;-1.40;91.90;;;;;;6152031;23;20378;-74
2022/12/12 09:12:18;;;;;;;2.63;1.40;;;-1.40;91.90;;;;;;6154006;23;20007;-74
2022/12/12 09:14:44;;;;;;;1.92;1.00;;;-1.40;91.80;;;;;;6152429;23;19998;-74
2022/12/12 09:17:10;;;;;;;2.72;1.20;;;-1.40;91.80;;;;;;6153275;23;20016;-74
2022/12/12 09:19:35;;;;;;;2.45;1.20;;;-1.40;91.80;;;;;;6151879;23;20001;-74
2022/12/12 09:22:02;;;;;;;3.25;1.23;;;-1.40;91.80;;;;;;6152650;23;20093;-75
2022/12/12 09:24:33;;;;;;;2.65;1.05;;;-1.40;91.80;;;;;;6151404;23;20005;-75
2022/12/12 09:27:01;;;;;;;4.13;1.27;;;-1.40;91.80;;;;;;6153019;23;20421;-74
2022/12/12 09:29:27;;;;;;;3.85;1.52;;;-1.30;91.80;;;;;;6151742;23;20102;-74
2022/12/12 09:32:05;;;;;;;3.42;1.55;;;-1.30;91.80;;;;;;6127175;23;20081;-73
2022/12/12 09:34:32;;;;;;;3.50;1.35;;;-1.30;91.80;;;;;;6153683;23;20017;-74
2022/12/12 09:36:58;;;;;;;3.10;1.23;;;-1.30;91.70;;;;;;6151277;23;20080;-73
2022/12/12 09:39:23;;;;;;;2.88;1.33;;;-1.20;91.70;;;;;;6151102;23;20041;-74
2022/12/12 09:41:52;;;;;;;2.38;1.15;;;-1.20;91.70;;;;;;6150872;23;20041;-73
2022/12/12 09:44:21;;;;;;;3.83;1.42;;;-1.20;91.70;;;;;;6152699;23;20104;-73
2022/12/12 09:46:56;;;;;;;4.13;1.70;;;-1.20;91.70;;;;;;6150913;23;20013;-73
2022/12/12 09:49:38;;;;;;;3.80;1.63;;;-1.20;91.70;;;;;;6151498;23;20010;-74
2022/12/12 09:52:04;;;;;;;3.10;1.52;;;-1.10;91.70;;;;;;6127744;23;20341;-73
2022/12/12 09:54:30;;;;;;;2.78;1.15;;;-1.10;91.60;;;;;;6126935;23;20012;-74
2022/12/12 09:57:23;;;;;;;3.72;1.50;;;-1.10;91.60;;;;;;6152812;23;20013;-73
2022/12/12 10:00:00;;;;;;;2.40;1.30;;;-1.10;91.60;;;;;;6153041;23;20439;-74
2022/12/12 10:03:04;;;;;;;3.53;1.60;;;-1.00;91.60;;;;;;6152334;23;20084;-74
2022/12/12 10:06:05;;;;;;;3.42;1.60;;;-1.10;91.60;;;;;;6152208;23;20006;-75
2022/12/12 10:09:04;;;;;;;4.70;1.80;;;-1.10;91.50;;;;;;6131438;23;20049;-72
2022/12/12 10:14:11;;;;;;;3.92;1.63;;;-1.00;91.50;;;;;;6150187;23;20450;-73
2022/12/12 10:16:38;;;;;;;3.83;1.52;;;-0.90;91.50;;;;;;6149926;23;20461;-73
2022/12/12 10:19:24;;;;;;;2.85;1.45;;;-0.90;91.50;;;;;;6125444;23;20048;-74
2022/12/12 10:21:53;;;;;;;2.22;1.30;;;-0.70;91.60;;;;;;6150005;23;20013;-74
2022/12/12 10:24:40;;;;;;;2.75;1.15;;;-0.90;91.50;;;;;;6150413;23;20016;-73
2022/12/12 10:30:19;;;;;;;3.28;1.60;;;-0.80;91.50;;;;;;5945687;24;20027;-73
2022/12/12 10:33:15;;;;;;;3.58;1.40;;;-0.70;91.50;;;;;;5949560;24;20016;-73
2022/12/12 10:36:02;;;;;;;3.38;1.42;;;-0.70;91.40;;;;;;5951080;24;20065;-73
2022/12/12 10:39:07;;;;;;;2.80;1.20;;;-0.60;91.40;;;;;;5948432;24;20114;-72
2022/12/12 10:41:50;;;;;;;2.17;1.02;;;-0.60;91.40;;;;;;5950305;24;20016;-73
2022/12/12 10:44:44;;;;;;;1.70;0.90;;;-0.60;91.40;;;;;;5978111;23;20012;-73
2022/12/12 10:47:11;;;;;;;2.47;1.08;;;-0.60;91.40;;;;;;5979180;23;20418;-73
2022/12/12 10:49:39;;;;;;;3.13;1.20;;;-0.60;91.40;;;;;;5978539;23;20008;-73
2022/12/12 10:52:15;;;;;;;1.30;0.77;;;-0.60;91.30;;;;;;5978877;23;20080;-73
2022/12/12 10:54:46;;;;;;;2.42;1.02;;;-0.60;91.40;;;;;;5978843;23;20445;-74
2022/12/12 10:57:18;;;;;;;2.22;1.20;;;-0.50;91.40;;;;;;5979413;23;20008;-74
2022/12/12 10:59:50;;;;;;;2.13;1.02;;;-0.50;91.40;;;;;;5983174;23;20499;-73
2022/12/12 11:02:35;;;;;;;2.13;1.25;;;-0.50;91.30;;;;;;6025464;23;20015;-74
2022/12/12 11:05:19;;;;;;;1.52;0.82;;;-0.40;91.40;;;;;;6011636;23;20086;-74
2022/12/12 11:07:47;;;;;;;2.17;0.90;;;-0.40;91.30;;;;;;6116816;23;20092;-74
2022/12/12 11:10:25;;;;;;;2.17;1.00;;;-0.40;91.30;;;;;;6152483;23;19998;-74
2022/12/12 11:13:11;;;;;;;1.77;1.00;;;-0.30;91.30;;;;;;6153948;23;20076;-72
2022/12/12 11:16:01;;;;;;;1.15;0.85;;;-0.30;91.30;;;;;;6177292;23;20377;-74
2022/12/12 11:18:27;;;;;;;1.52;0.80;;;-0.30;91.20;;;;;;6154176;23;20091;-75
2022/12/12 11:21:08;;;;;;;1.95;0.90;;;-0.20;91.30;;;;;;6154603;23;20497;-74
2022/12/12 11:23:40;;;;;;;2.45;0.95;;;-0.10;91.30;;;;;;6153713;23;20393;-74
2022/12/12 11:26:12;;;;;;;0.95;0.70;;;-0.20;91.20;;;;;;6145502;23;20014;-75
2022/12/12 11:28:39;;;;;;;2.30;1.00;;;-0.20;91.20;;;;;;6098076;23;20022;-73
2022/12/12 11:31:09;;;;;;;2.67;1.08;;;0.00;91.20;;;;;;6098190;23;20013;-73
2022/12/12 11:33:42;;;;;;;2.58;1.10;;;0.00;91.20;;;;;;6121915;23;20010;-74
2022/12/12 11:36:17;;;;;;;2.35;1.10;;;0.00;91.20;;;;;;6121810;23;20506;-73
2022/12/12 11:38:49;;;;;;;2.53;1.00;;;0.00;91.10;;;;;;6099247;23;20014;-73
2022/12/12 11:41:16;;;;;;;1.88;0.93;;;0.10;91.10;;;;;;6122619;23;20370;-74
2022/12/12 11:44:00;;;;;;;3.55;1.27;;;0.10;91.00;;;;;;6121751;23;20010;-73
2022/12/12 11:46:29;;;;;;;3.60;1.40;;;0.10;91.00;;;;;;6097674;23;20462;-74
2022/12/12 11:49:00;;;;;;;3.42;1.38;;;0.20;91.00;;;;;;6097443;23;20073;-73
2022/12/12 11:51:40;;;;;;;2.35;1.17;;;0.20;90.90;;;;;;6097777;23;20021;-72
2022/12/12 11:54:17;;;;;;;3.05;1.38;;;0.30;91.20;;;;;;6122414;23;20012;-73
2022/12/12 11:56:49;;;;;;;2.97;1.42;;;0.40;90.90;;;;;;6115887;23;20020;-72
2022/12/12 11:59:45;;;;;;;1.80;1.17;;;0.50;90.90;;;;;;6151638;23;20020;-72
2022/12/12 12:02:44;;;;;;;2.83;1.33;;;0.50;90.80;;;;;;6134060;23;20371;-74
2022/12/12 12:05:30;;;;;;;2.38;1.15;;;0.50;90.70;;;;;;6153794;23;20013;-73
2022/12/12 12:08:34;;;;;;;2.92;1.20;;;0.60;90.70;;;;;;6152325;23;20068;-73
2022/12/12 12:11:26;;;;;;;3.22;1.48;;;0.70;90.70;;;;;;6153904;23;20005;-73
2022/12/12 12:14:13;;;;;;;1.65;1.02;;;0.80;90.60;;;;;;6154252;23;20104;-74
2022/12/12 12:17:05;;;;;;;2.60;1.05;;;0.80;90.50;;;;;;6154421;23;20012;-74
2022/12/12 12:19:55;;;;;;;2.35;1.20;;;1.00;90.50;;;;;;6153946;23;20040;-73
2022/12/12 12:22:56;;;;;;;1.85;0.82;;;1.00;90.50;;;;;;6153863;23;20080;-73
2022/12/12 12:25:42;;;;;;;2.35;1.10;;;1.10;90.40;;;;;;6153899;23;20382;-72
2022/12/12 12:28:48;;;;;;;2.50;1.13;;;1.20;90.40;;;;;;6154043;23;20068;-73
2022/12/12 12:31:41;;;;;;;2.25;1.23;;;1.20;90.30;;;;;;6152822;23;20483;-72
2022/12/12 12:34:36;;;;;;;2.50;1.20;;;1.30;90.30;;;;;;6154460;23;20032;-73
2022/12/12 12:37:26;;;;;;;2.30;1.10;;;1.40;90.20;;;;;;6145804;23;20017;-74
2022/12/12 12:40:06;;;;;;;1.63;0.85;;;1.40;90.20;;;;;;6152401;23;20080;-73
2022/12/12 12:42:53;;;;;;;3.53;1.20;;;1.50;90.20;;;;;;6152043;23;20005;-73
2022/12/12 12:45:56;;;;;;;1.98;0.95;;;1.50;90.10;;;;;;6154527;23;20013;-74
2022/12/12 12:48:30;;;;;;;2.55;0.82;;;1.60;90.10;;;;;;6152273;23;20040;-74
2022/12/12 12:51:15;;;;;;;2.33;0.88;;;1.60;90.10;;;;;;6152044;23;20012;-73
2022/12/12 12:53:50;;;;;;;2.00;1.00;;;1.60;90.10;;;;;;6154425;23;20032;-73
2022/12/12 12:56:25;;;;;;;1.98;1.00;;;1.60;90.10;;;;;;6152117;23;20052;-74
2022/12/12 12:58:52;;;;;;;2.45;1.10;;;1.80;90.10;;;;;;6151850;23;20040;-74
2022/12/12 13:01:29;;;;;;;1.77;1.05;;;1.80;90.00;;;;;;6152718;23;20013;-73
2022/12/12 13:04:04;;;;;;;2.13;1.00;;;1.80;89.90;;;;;;6154106;23;20068;-73
2022/12/12 13:06:42;;;;;;;2.50;1.00;;;1.90;90.00;;;;;;6151859;23;20002;-74
2022/12/12 13:09:32;;;;;;;1.50;1.02;;;1.90;90.00;;;;;;6153517;23;20052;-74
2022/12/12 13:12:09;;;;;;;1.52;0.82;;;1.80;90.00;;;;;;6153404;23;20081;-73
2022/12/12 13:14:57;;;;;;;1.63;0.80;;;1.80;89.90;;;;;;6152572;23;20092;-73
2022/12/12 13:17:36;;;;;;;1.85;0.95;;;1.90;90.00;;;;;;6151889;23;20017;-73
2022/12/12 13:20:02;;;;;;;1.80;0.70;;;1.90;90.00;;;;;;6151345;23;20009;-73
2022/12/12 13:22:48;;;;;;;1.35;0.70;;;1.80;89.90;;;;;;6150827;23;20068;-72
2022/12/12 13:25:40;;;;;;;1.17;0.70;;;2.00;90.00;;;;;;6126315;23;20016;-73
2022/12/12 13:28:09;;;;;;;;;;;1.80;89.90;;;;;;6151087;23;20014;-74
2022/12/12 13:31:12;;;;;;;0.73;0.40;;;1.90;90.00;;;;;;6150691;23;19904;-74
2022/12/12 13:33:52;;;;;;;1.02;0.52;;;1.90;90.00;;;;;;6134440;23;20001;-74
2022/12/12 13:36:21;;;;;;;0.73;0.40;;;1.90;90.00;;;;;;6151248;23;20001;-74
2022/12/12 13:38:52;;;;;;;1.60;0.70;;;1.90;90.00;;;;;;6125813;23;20108;-73
2022/12/12 13:41:18;;;;;;;1.30;0.63;;;2.00;90.00;;;;;;6125875;23;20010;-74
2022/12/12 13:43:46;;;;;;;1.92;0.90;;;1.90;90.00;;;;;;6150958;23;20075;-74
2022/12/12 13:46:34;;;;;;;1.08;0.70;;;1.90;90.00;;;;;;6126127;23;20085;-74
2022/12/12 13:49:14;;;;;;;1.90;0.90;;;2.00;90.00;;;;;;6149942;23;20021;-74